Hyderabad Weather



Hyderabad's Current Weather

Temprature 42.662o clear sky

clear sky

Rain: 0 %

Min Temprature42.662o
Max Temprature42.662o
Humidity22
Wind Speed7.67 m/h
Sun Rise05:37:42
Sun Set19:20:33
Current Time: 26-Jun-2019 15:22:11
Lat/Lon: 25.38, 68.38




Hyderabad's Geo Location



Hyderabad's Weather Forecast

Time Overall Temp Min Temp Max Temp Humidity Wind Speed Rain
26-Jun-2019 (Wed)
17:00:00 clear sky 38.750 38.750 38.750 32 11.48 m/h 0 %
20:00:00 clear sky 31.750 31.747 31.750 57 8.44 m/h 0 %
23:00:00 clear sky 28.940 28.940 28.940 72 10.68 m/h 0 %
27-Jun-2019 (Thu)
02:00:00 clear sky 28.580 28.579 28.580 72 10.97 m/h 0 %
05:00:00 clear sky 28.165 28.165 28.165 75 10.85 m/h 0 %
08:00:00 clear sky 30.150 30.150 30.150 65 10.66 m/h 0 %
11:00:00 clear sky 35.674 35.674 35.674 44 12.55 m/h 0 %
14:00:00 clear sky 37.650 37.650 37.650 38 12.44 m/h 0 %
17:00:00 clear sky 35.080 35.080 35.080 46 11.62 m/h 0 %
20:00:00 clear sky 29.194 29.194 29.194 70 11.67 m/h 0 %
23:00:00 clear sky 28.435 28.435 28.435 71 12.23 m/h 0 %
28-Jun-2019 (Fri)
02:00:00 clear sky 28.028 28.028 28.028 71 11.82 m/h 0 %
05:00:00 clear sky 27.628 27.628 27.628 74 12.15 m/h 0 %
08:00:00 clear sky 29.749 29.749 29.749 64 13.12 m/h 0 %
11:00:00 clear sky 34.025 34.025 34.025 48 13.21 m/h 0 %
14:00:00 clear sky 36.731 36.731 36.731 41 11.92 m/h 0 %
17:00:00 clear sky 34.950 34.950 34.950 48 11.39 m/h 0 %
20:00:00 clear sky 29.550 29.550 29.550 70 11.57 m/h 0 %
23:00:00 clear sky 28.572 28.572 28.572 72 11.89 m/h 0 %
29-Jun-2019 (Sat)
02:00:00 clear sky 27.972 27.972 27.972 74 11.81 m/h 0 %
05:00:00 clear sky 27.579 27.579 27.579 77 11.06 m/h 0 %
08:00:00 clear sky 29.697 29.697 29.697 66 12.93 m/h 0 %
11:00:00 clear sky 35.450 35.450 35.450 45 12.34 m/h 0 %
14:00:00 clear sky 38.350 38.350 38.350 37 11.14 m/h 0 %
17:00:00 clear sky 35.691 35.691 35.691 46 12.7 m/h 0 %
20:00:00 clear sky 29.750 29.750 29.750 70 11.69 m/h 0 %
23:00:00 clear sky 28.750 28.750 28.750 75 11.79 m/h 0 %
30-Jun-2019 (Sun)
02:00:00 broken clouds 28.636 28.636 28.636 71 10.71 m/h 0 %
05:00:00 scattered clouds 28.002 28.002 28.002 76 10.46 m/h 0 %
08:00:00 clear sky 29.992 29.992 29.992 67 11.93 m/h 0 %
11:00:00 clear sky 35.118 35.118 35.118 49 12.87 m/h 0 %
14:00:00 clear sky 38.308 38.308 38.308 38 12.01 m/h 0 %
17:00:00 clear sky 35.850 35.850 35.850 47 11.73 m/h 0 %
20:00:00 clear sky 29.750 29.750 29.750 71 11.53 m/h 0 %
23:00:00 few clouds 29.150 29.150 29.150 72 11.06 m/h 0 %
01-Jul-2019 (Mon)
02:00:00 few clouds 28.250 28.250 28.250 74 10.27 m/h 0 %
05:00:00 few clouds 28.235 28.235 28.235 73 8.15 m/h 0 %
08:00:00 scattered clouds 30.250 30.250 30.250 64 10.7 m/h 0 %
11:00:00 scattered clouds 35.050 35.050 35.050 49 9.53 m/h 0 %
14:00:00 clear sky 39.750 39.750 39.750 35 8.16 m/h 0 %


Hyderabad's Tourist Spots

Museums in Hyderabad

Famous Cities (60)